Time;durP1;ratioP1;P1;durP2;ratioP2;P2;SDS_P1;SDS_P2;PMS_P1;PMS_P2;Temp;Humidity;BMP_temperature;BMP_pressure;BME280_temperature;BME280_humidity;BME280_pressure;Samples;Min_cycle;Max_cycle;Signal;HPM_P1;HPM_P2
2021/12/28 00:01:27;;;;;;;;;;;6.70;99.90;;;;;;5039684;28;20076;-74
2021/12/28 00:03:54;;;;;;;;;;;6.70;99.90;;;;;;5038738;28;20148;-71
2021/12/28 00:06:21;;;;;;;;;;;6.70;99.90;;;;;;5040258;28;20060;-74
2021/12/28 00:08:49;;;;;;;;;;;6.70;99.90;;;;;;5039842;28;20068;-75
2021/12/28 00:11:16;;;;;;;;;;;6.70;99.90;;;;;;5007398;28;20084;-73
2021/12/28 00:13:44;;;;;;;;;;;6.80;99.90;;;;;;5039269;28;21158;-75
2021/12/28 00:16:33;;;;;;;;;;;6.80;99.90;;;;;;5039739;28;20217;-74
2021/12/28 00:19:03;;;;;;;;;;;6.80;99.90;;;;;;5040466;28;20164;-75
2021/12/28 00:21:30;;;;;;;;;;;6.80;99.90;;;;;;5006714;28;20073;-75
2021/12/28 00:23:58;;;;;;;;;;;6.70;99.90;;;;;;5039804;28;20060;-74
2021/12/28 00:26:27;;;;;;;;;;;6.70;99.90;;;;;;5040102;28;20059;-74
2021/12/28 00:28:54;;;;;;;;;;;6.70;99.90;;;;;;5038741;28;20059;-75
2021/12/28 00:31:22;;;;;;;;;;;6.70;99.90;;;;;;5040482;28;20059;-74
2021/12/28 00:33:49;;;;;;;;;;;6.70;99.90;;;;;;5039901;28;21131;-74
2021/12/28 00:36:17;;;;;;;;;;;6.70;99.90;;;;;;5006079;28;20075;-74
2021/12/28 00:38:45;;;;;;;;;;;6.70;99.90;;;;;;5004973;28;20204;-75
2021/12/28 00:41:12;;;;;;;;;;;6.70;99.90;;;;;;5039982;28;20068;-74
2021/12/28 00:43:40;;;;;;;;;;;6.70;99.90;;;;;;5039311;28;20148;-74
2021/12/28 00:46:07;;;;;;;;;;;6.80;99.90;;;;;;5039809;28;20083;-74
2021/12/28 00:48:34;;;;;;;;;;;6.80;99.90;;;;;;5039387;28;20067;-74
2021/12/28 00:51:01;;;;;;;;;;;6.80;99.90;;;;;;5039745;28;20068;-77
2021/12/28 00:53:30;;;;;;;;;;;6.90;99.90;;;;;;5006494;28;21097;-71
2021/12/28 00:55:57;;;;;;;;;;;6.90;99.90;;;;;;5039105;28;20051;-74
2021/12/28 00:58:24;;;;;;;;;;;6.90;99.90;;;;;;5039681;28;20067;-74
2021/12/28 01:00:52;;;;;;;;;;;7.00;99.90;;;;;;5039374;28;20059;-74
2021/12/28 01:03:19;;;;;;;;;;;7.00;99.90;;;;;;5039642;28;20066;-74
2021/12/28 01:05:46;;;;;;;;;;;7.10;99.90;;;;;;5038957;28;20068;-75
2021/12/28 01:08:13;;;;;;;;;;;7.10;99.90;;;;;;5039171;28;20090;-74
2021/12/28 01:10:43;;;;;;;;;;;7.20;99.90;;;;;;5005796;28;21116;-74
2021/12/28 01:13:11;;;;;;;;;;;7.20;99.90;;;;;;5005500;28;20079;-75
2021/12/28 01:15:39;;;;;;;;;;;7.30;99.90;;;;;;5042838;28;20202;-74
2021/12/28 01:18:06;;;;;;;;;;;7.30;99.90;;;;;;5042834;28;20068;-74
2021/12/28 01:20:33;;;;;;;;;;;7.30;99.90;;;;;;5043541;28;20060;-76
2021/12/28 01:23:00;;;;;;;;;;;7.40;99.90;;;;;;5044320;28;20086;-75
2021/12/28 01:25:27;;;;;;;;;;;7.40;99.90;;;;;;5042832;28;20051;-76
2021/12/28 01:27:56;;;;;;;;;;;7.40;99.90;;;;;;5043179;28;20075;-75
2021/12/28 01:30:25;;;;;;;;;;;7.50;99.90;;;;;;5044197;28;20133;-75
2021/12/28 01:32:52;;;;;;;;;;;7.60;99.90;;;;;;5043525;28;21113;-75
2021/12/28 01:35:20;;;;;;;;;;;7.60;99.90;;;;;;5009914;28;21111;-76
2021/12/28 01:37:48;;;;;;;;;;;7.60;99.90;;;;;;5043103;28;20060;-74
2021/12/28 01:40:16;;;;;;;;;;;7.60;99.90;;;;;;5043575;28;20067;-75
2021/12/28 01:42:59;;;;;;;;;;;7.60;99.90;;;;;;5009337;28;20108;-74
2021/12/28 01:45:37;;;;;;;;;;;7.60;99.90;;;;;;5042346;28;20059;-75
2021/12/28 01:48:05;;;;;;;;;;;7.60;99.90;;;;;;5042619;28;20063;-75
2021/12/28 01:50:32;;;;;;;;;;;7.70;99.90;;;;;;5043315;28;20058;-74
2021/12/28 01:52:59;;;;;;;;;;;7.70;99.90;;;;;;5042786;28;21175;-75
2021/12/28 01:55:26;;;;;;;;;;;7.70;99.90;;;;;;5009443;28;21123;-77
2021/12/28 01:57:54;;;;;;;;;;;7.80;99.90;;;;;;5042601;28;21118;-75
2021/12/28 02:00:23;;;;;;;;;;;7.80;99.90;;;;;;5043878;28;21436;-76
2021/12/28 02:02:50;;;;;;;;;;;7.80;99.90;;;;;;5043061;28;20231;-75
2021/12/28 02:05:17;;;;;;;;;;;7.80;99.90;;;;;;5042984;28;20067;-75
2021/12/28 02:07:44;;;;;;;;;;;7.80;99.90;;;;;;5042124;28;20156;-72
2021/12/28 02:10:11;;;;;;;;;;;7.90;99.90;;;;;;5042408;28;21179;-71
2021/12/28 02:12:38;;;;;;;;;;;7.90;99.90;;;;;;5041236;28;20067;-73
2021/12/28 02:15:12;;;;;;;;;;;7.90;99.90;;;;;;5042988;28;21326;-74
2021/12/28 02:17:41;;;;;;;;;;;7.90;99.90;;;;;;5042023;28;21252;-72
2021/12/28 02:20:11;;;;;;;;;;;7.90;99.90;;;;;;5008913;28;20072;-74
2021/12/28 02:22:38;;;;;;;;;;;7.90;99.90;;;;;;5008530;28;20060;-74
2021/12/28 02:25:07;;;;;;;;;;;7.90;99.90;;;;;;5042143;28;20090;-73
2021/12/28 02:27:34;;;;;;;;;;;7.90;99.90;;;;;;5008370;28;20128;-75
2021/12/28 02:30:01;;;;;;;;;;;7.90;99.90;;;;;;5041667;28;21142;-74
2021/12/28 02:32:29;;;;;;;;;;;7.90;99.90;;;;;;5042760;28;20060;-74
2021/12/28 02:34:57;;;;;;;;;;;7.90;99.90;;;;;;5042635;28;20052;-74
2021/12/28 02:37:26;;;;;;;;;;;7.90;99.90;;;;;;5009019;28;20052;-75
2021/12/28 02:39:53;;;;;;;;;;;7.90;99.90;;;;;;5008316;28;20051;-75
2021/12/28 02:42:21;;;;;;;;;;;7.80;99.90;;;;;;5008679;28;21136;-75
2021/12/28 02:44:56;;;;;;;;;;;7.80;99.90;;;;;;5041907;28;20060;-75
2021/12/28 02:47:23;;;;;;;;;;;7.80;99.90;;;;;;5008697;28;20098;-74
2021/12/28 02:49:50;;;;;;;;;;;7.80;99.90;;;;;;5008469;28;20051;-74
2021/12/28 02:52:17;;;;;;;;;;;7.80;99.90;;;;;;5042011;28;20067;-74
2021/12/28 02:54:46;;;;;;;;;;;7.80;99.90;;;;;;5009623;28;20066;-74
2021/12/28 02:57:13;;;;;;;;;;;7.80;99.90;;;;;;5009049;28;20075;-76
2021/12/28 02:59:48;;;;;;;;;;;7.90;99.90;;;;;;5041568;28;20149;-75
2021/12/28 03:02:15;;;;;;;;;;;7.90;99.90;;;;;;5041788;28;20075;-74
2021/12/28 03:04:42;;;;;;;;;;;7.90;99.90;;;;;;5041192;28;21125;-74
2021/12/28 03:07:09;;;;;;;;;;;8.00;99.90;;;;;;5028093;28;20133;-74
2021/12/28 03:09:37;;;;;;;;;;;8.00;99.90;;;;;;5001688;28;21146;-74
2021/12/28 03:12:06;;;;;;;;;;;8.00;99.90;;;;;;5008262;28;20180;-74
2021/12/28 03:14:33;;;;;;;;;;;8.00;99.90;;;;;;5041267;28;20066;-74
2021/12/28 03:17:00;;;;;;;;;;;8.00;99.90;;;;;;5007980;28;20060;-74
2021/12/28 03:19:28;;;;;;;;;;;8.00;99.90;;;;;;5040661;28;20051;-74
2021/12/28 03:21:55;;;;;;;;;;;8.00;99.90;;;;;;5041368;28;20051;-74
2021/12/28 03:24:22;;;;;;;;;;;8.00;99.90;;;;;;5008357;28;20058;-74
2021/12/28 03:26:49;;;;;;;;;;;8.00;99.90;;;;;;5040713;28;20066;-75
2021/12/28 03:29:18;;;;;;;;;;;8.00;99.90;;;;;;5041122;28;21189;-74
2021/12/28 03:31:45;;;;;;;;;;;8.10;99.90;;;;;;5008633;28;20060;-75
2021/12/28 03:34:12;;;;;;;;;;;8.10;99.90;;;;;;5041268;28;20065;-75
2021/12/28 03:36:41;;;;;;;;;;;8.10;99.90;;;;;;5041072;28;20066;-75
2021/12/28 03:39:08;;;;;;;;;;;8.10;99.90;;;;;;5040200;28;21262;-75
2021/12/28 03:41:36;;;;;;;;;;;8.10;99.90;;;;;;5040492;28;20067;-74
2021/12/28 03:44:03;;;;;;;;;;;8.20;99.90;;;;;;5040796;28;20161;-74
2021/12/28 03:46:32;;;;;;;;;;;8.20;99.90;;;;;;5007583;28;20933;-75
2021/12/28 03:48:59;;;;;;;;;;;8.20;99.90;;;;;;5040474;28;20069;-74
2021/12/28 03:51:27;;;;;;;;;;;8.30;99.90;;;;;;5041068;28;20060;-74
2021/12/28 03:53:54;;;;;;;;;;;8.30;99.90;;;;;;5040183;28;20059;-74
2021/12/28 03:56:21;;;;;;;;;;;8.30;99.90;;;;;;5040100;28;20059;-74
2021/12/28 03:58:48;;;;;;;;;;;8.30;99.90;;;;;;5040316;28;21249;-74
2021/12/28 04:01:17;;;;;;;;;;;8.30;99.90;;;;;;5041022;28;21159;-74
2021/12/28 04:03:46;;;;;;;;;;;8.30;99.90;;;;;;5007201;28;21130;-75
2021/12/28 04:06:14;;;;;;;;;;;8.30;99.90;;;;;;5040053;28;20060;-75
2021/12/28 04:08:41;;;;;;;;;;;8.20;99.90;;;;;;5006873;28;20060;-75
2021/12/28 04:11:25;;;;;;;;;;;8.30;99.90;;;;;;5040828;28;20067;-74
2021/12/28 04:13:54;;;;;;;;;;;8.30;99.90;;;;;;5040799;28;20057;-74
2021/12/28 04:16:21;;;;;;;;;;;8.30;99.90;;;;;;5029101;28;20076;-75
2021/12/28 04:18:50;;;;;;;;;;;8.30;99.90;;;;;;5021846;28;20067;-74
2021/12/28 04:21:17;;;;;;;;;;;8.30;99.90;;;;;;4997580;28;20075;-75
2021/12/28 04:23:44;;;;;;;;;;;8.30;99.90;;;;;;5006464;28;21071;-75
2021/12/28 04:26:12;;;;;;;;;;;8.30;99.90;;;;;;5040488;28;21033;-74
2021/12/28 04:28:39;;;;;;;;;;;8.40;99.90;;;;;;5039573;28;20060;-75
2021/12/28 04:31:06;;;;;;;;;;;8.40;99.90;;;;;;5040225;28;21072;-75
2021/12/28 04:33:37;;;;;;;;;;;8.40;99.90;;;;;;5040095;28;21085;-75
2021/12/28 04:36:08;;;;;;;;;;;8.40;99.90;;;;;;5039878;28;20065;-74
2021/12/28 04:38:35;;;;;;;;;;;8.50;99.90;;;;;;5040540;28;21139;-73
2021/12/28 04:41:02;;;;;;;;;;;8.50;99.90;;;;;;5040532;28;21101;-74
2021/12/28 04:43:29;;;;;;;;;;;8.50;99.90;;;;;;5040145;28;20222;-74
2021/12/28 04:45:56;;;;;;;;;;;8.50;99.90;;;;;;5039521;28;20066;-75
2021/12/28 04:48:23;;;;;;;;;;;8.50;99.90;;;;;;5005632;28;20051;-74
2021/12/28 04:50:51;;;;;;;;;;;8.50;99.90;;;;;;5007042;28;20069;-75
2021/12/28 04:53:19;;;;;;;;;;;8.50;99.90;;;;;;5006451;28;20127;-74
2021/12/28 04:55:48;;;;;;;;;;;8.50;99.90;;;;;;5006268;28;20077;-74
2021/12/28 04:58:15;;;;;;;;;;;8.50;99.90;;;;;;5039698;28;20050;-74
2021/12/28 05:00:43;;;;;;;;;;;8.50;99.90;;;;;;5040038;28;20067;-74
2021/12/28 05:03:11;;;;;;;;;;;8.50;99.90;;;;;;5040376;28;20070;-74
2021/12/28 05:05:40;;;;;;;;;;;8.50;99.90;;;;;;5006458;28;20162;-74
2021/12/28 05:08:07;;;;;;;;;;;8.50;99.90;;;;;;5006510;28;21121;-75
2021/12/28 05:10:36;;;;;;;;;;;8.50;99.90;;;;;;5007145;28;20979;-74
2021/12/28 05:13:03;;;;;;;;;;;8.50;99.90;;;;;;5006352;28;20064;-76
2021/12/28 05:15:31;;;;;;;;;;;8.40;99.90;;;;;;5038861;28;20138;-74
2021/12/28 05:17:58;;;;;;;;;;;8.40;99.90;;;;;;5006163;28;20075;-76
2021/12/28 05:20:25;;;;;;;;;;;8.40;99.90;;;;;;5039950;28;20059;-74
2021/12/28 05:22:52;;;;;;;;;;;8.40;99.90;;;;;;5039161;28;20137;-74
2021/12/28 05:25:19;;;;;;;;;;;8.40;99.90;;;;;;5039390;28;20051;-73
2021/12/28 05:27:48;;;;;;;;;;;8.40;99.90;;;;;;5039378;28;20063;-76
2021/12/28 05:30:15;;;;;;;;;;;8.40;99.90;;;;;;5039875;28;20067;-74
2021/12/28 05:32:43;;;;;;;;;;;8.40;99.90;;;;;;5039780;28;20276;-74
2021/12/28 05:35:10;;;;;;;;;;;8.40;99.90;;;;;;5039844;28;20161;-74
2021/12/28 05:37:38;;;;;;;;;;;8.40;99.90;;;;;;5008912;28;20051;-78
2021/12/28 05:40:06;;;;;;;;;;;8.40;99.90;;;;;;5006249;28;20067;-75
2021/12/28 05:42:34;;;;;;;;;;;8.50;99.90;;;;;;5005800;28;20051;-74
2021/12/28 05:45:02;;;;;;;;;;;8.50;99.90;;;;;;5040071;28;21130;-76
2021/12/28 05:47:29;;;;;;;;;;;8.50;99.90;;;;;;5039227;28;21100;-76
2021/12/28 05:49:56;;;;;;;;;;;8.50;99.90;;;;;;5039144;28;20051;-74
2021/12/28 05:52:24;;;;;;;;;;;8.50;99.90;;;;;;5005415;28;20090;-77
2021/12/28 05:54:50;;;;;;;;;;;8.50;99.90;;;;;;5039242;28;20075;-75
2021/12/28 05:57:18;;;;;;;;;;;8.50;99.90;;;;;;5038760;28;20068;-75
2021/12/28 05:59:45;;;;;;;;;;;8.40;99.90;;;;;;5039000;28;20066;-75
2021/12/28 06:02:14;;;;;;;;;;;8.40;99.90;;;;;;4999776;28;20068;-75
2021/12/28 06:04:42;;;;;;;;;;;8.30;99.90;;;;;;5001797;28;21120;-75
2021/12/28 06:07:09;;;;;;;;;;;8.30;99.90;;;;;;4998829;28;20110;-74
2021/12/28 06:09:36;;;;;;;;;;;8.30;99.90;;;;;;4989042;28;20059;-74
2021/12/28 06:12:03;;;;;;;;;;;8.40;99.90;;;;;;4989646;28;20060;-75
2021/12/28 06:14:30;;;;;;;;;;;8.40;99.90;;;;;;4990384;28;21329;-74
2021/12/28 06:16:57;;;;;;;;;;;8.50;99.90;;;;;;4989832;28;20059;-75
2021/12/28 06:19:26;;;;;;;;;;;8.50;99.90;;;;;;4992937;28;20067;-74
2021/12/28 06:21:53;;;;;;;;;;;8.40;99.90;;;;;;5008942;28;20066;-75
2021/12/28 06:24:20;;;;;;;;;;;8.40;99.90;;;;;;5026060;28;20107;-75
2021/12/28 06:26:48;;;;;;;;;;;8.40;99.90;;;;;;5026063;28;21155;-74
2021/12/28 06:29:15;;;;;;;;;;;8.40;99.90;;;;;;5009320;28;20178;-74
2021/12/28 06:31:42;;;;;;;;;;;8.40;99.90;;;;;;5025430;28;20060;-75
2021/12/28 06:34:09;;;;;;;;;;;8.40;99.90;;;;;;5025479;28;20060;-74
2021/12/28 06:36:38;;;;;;;;;;;8.40;99.90;;;;;;5005062;28;20181;-75
2021/12/28 06:39:05;;;;;;;;;;;8.40;99.90;;;;;;5014131;28;21303;-72
2021/12/28 06:41:33;;;;;;;;;;;8.40;99.90;;;;;;5018263;28;20190;-75
2021/12/28 06:44:00;;;;;;;;;;;8.40;99.90;;;;;;5014261;28;20075;-73
2021/12/28 06:46:27;;;;;;;;;;;8.40;99.90;;;;;;5013208;28;20090;-74
2021/12/28 06:48:54;;;;;;;;;;;8.40;99.90;;;;;;5005515;28;20068;-75
2021/12/28 06:51:21;;;;;;;;;;;8.50;99.90;;;;;;5017560;28;21138;-75
2021/12/28 06:53:50;;;;;;;;;;;8.50;99.90;;;;;;5021701;28;20083;-74
2021/12/28 06:56:17;;;;;;;;;;;8.50;99.90;;;;;;5000509;28;21088;-75
2021/12/28 06:58:44;;;;;;;;;;;8.40;99.90;;;;;;5015225;28;20068;-75
2021/12/28 07:01:11;;;;;;;;;;;8.40;99.90;;;;;;5015336;28;20078;-75
2021/12/28 07:03:39;;;;;;;;;;;8.20;99.90;;;;;;5041125;28;20068;-75
2021/12/28 07:06:06;;;;;;;;;;;8.10;99.90;;;;;;4989662;28;21015;-75
2021/12/28 07:08:34;;;;;;;;;;;8.00;99.90;;;;;;4988210;28;20067;-75
2021/12/28 07:11:04;;;;;;;;;;;7.90;99.90;;;;;;5005707;28;20051;-75
2021/12/28 07:13:31;;;;;;;;;;;7.80;99.90;;;;;;5007452;28;21248;-75
2021/12/28 07:15:58;;;;;;;;;;;7.70;99.90;;;;;;5007169;28;20060;-76
2021/12/28 07:18:25;;;;;;;;;;;7.70;99.90;;;;;;5041058;28;20204;-75
2021/12/28 07:20:52;;;;;;;;;;;7.70;99.90;;;;;;5041663;28;20092;-76
2021/12/28 07:23:20;;;;;;;;;;;7.80;99.90;;;;;;5007441;28;20051;-74
2021/12/28 07:25:47;;;;;;;;;;;7.80;99.90;;;;;;5041223;28;20088;-75
2021/12/28 07:28:16;;;;;;;;;;;7.90;99.90;;;;;;5040773;28;20059;-76
2021/12/28 07:30:43;;;;;;;;;;;7.90;99.90;;;;;;4998003;28;20265;-75
2021/12/28 07:33:10;;;;;;;;;;;7.90;99.90;;;;;;4988260;28;20202;-76
2021/12/28 07:35:37;;;;;;;;;;;7.90;99.90;;;;;;4987721;28;20161;-74
2021/12/28 07:38:04;;;;;;;;;;;8.00;99.90;;;;;;4992647;28;20079;-74
2021/12/28 07:40:32;;;;;;;;;;;8.00;99.90;;;;;;5009177;28;20076;-74
2021/12/28 07:42:59;;;;;;;;;;;8.00;99.90;;;;;;5015291;28;20060;-75
2021/12/28 07:45:28;;;;;;;;;;;8.10;99.90;;;;;;5004296;28;20165;-73
2021/12/28 07:47:55;;;;;;;;;;;8.10;99.90;;;;;;5003342;28;20068;-74
2021/12/28 07:50:22;;;;;;;;;;;8.10;99.90;;;;;;5032621;28;20091;-74
2021/12/28 07:52:52;;;;;;;;;;;8.20;99.90;;;;;;5016181;28;20092;-76
2021/12/28 07:55:19;;;;;;;;;;;8.20;99.90;;;;;;5021030;28;20060;-76
2021/12/28 07:57:46;;;;;;;;;;;8.20;99.90;;;;;;5020301;28;20064;-75
2021/12/28 08:00:14;;;;;;;;;;;8.20;99.90;;;;;;5018003;28;20077;-76
2021/12/28 08:02:44;;;;;;;;;;;8.20;99.90;;;;;;5011387;28;20084;-75
2021/12/28 08:05:11;;;;;;;;;;;8.10;99.90;;;;;;5020794;28;20068;-75
2021/12/28 08:07:39;;;;;;;;;;;8.10;99.90;;;;;;5018050;28;20067;-73
2021/12/28 08:10:07;;;;;;;;;;;8.10;99.90;;;;;;5003281;28;20264;-75
2021/12/28 08:12:34;;;;;;;;;;;8.10;99.90;;;;;;4999769;28;21251;-72
2021/12/28 08:15:02;;;;;;;;;;;8.10;99.90;;;;;;5019243;28;20067;-75
2021/12/28 08:17:30;;;;;;;;;;;8.10;99.90;;;;;;5018894;28;20068;-74
2021/12/28 08:19:59;;;;;;;;;;;8.20;99.90;;;;;;4999844;28;20081;-75
2021/12/28 08:22:26;;;;;;;;;;;8.20;99.90;;;;;;4995084;28;20088;-71
2021/12/28 08:24:54;;;;;;;;;;;8.20;99.90;;;;;;4998795;28;21243;-71
2021/12/28 08:27:21;;;;;;;;;;;8.30;99.90;;;;;;4992842;28;20084;-73
2021/12/28 08:29:48;;;;;;;;;;;8.30;99.90;;;;;;5007264;28;20162;-71
2021/12/28 08:32:16;;;;;;;;;;;8.30;99.90;;;;;;5009527;28;20089;-71
2021/12/28 08:34:43;;;;;;;;;;;8.30;99.90;;;;;;4998351;28;20423;-68
2021/12/28 08:37:12;;;;;;;;;;;8.30;99.90;;;;;;5002047;28;21574;-72
2021/12/28 08:39:39;;;;;;;;;;;8.30;99.90;;;;;;5019487;28;20360;-72
2021/12/28 08:42:07;;;;;;;;;;;8.40;99.90;;;;;;4987987;28;21249;-73
2021/12/28 08:44:34;;;;;;;;;;;8.50;99.90;;;;;;5000539;28;20083;-74
2021/12/28 08:47:02;;;;;;;;;;;8.50;99.90;;;;;;4990922;28;21146;-75
2021/12/28 08:49:29;;;;;;;;;;;8.60;99.90;;;;;;5023197;28;20219;-74
2021/12/28 08:51:56;;;;;;;;;;;8.80;99.90;;;;;;5000863;28;20190;-74
2021/12/28 08:54:25;;;;;;;;;;;8.90;99.90;;;;;;4999028;28;20214;-75
2021/12/28 08:56:52;;;;;;;;;;;9.10;99.90;;;;;;5007840;28;20060;-74
2021/12/28 08:59:20;;;;;;;;;;;9.30;99.90;;;;;;4988804;28;20052;-74
2021/12/28 09:01:48;;;;;;;;;;;9.40;99.90;;;;;;4988383;28;20100;-75
2021/12/28 09:04:15;;;;;;;;;;;9.50;99.90;;;;;;4995143;28;21142;-74
2021/12/28 09:06:42;;;;;;;;;;;9.60;99.90;;;;;;4986397;28;20307;-74
2021/12/28 09:09:09;;;;;;;;;;;9.70;99.90;;;;;;4986359;28;20060;-76
2021/12/28 09:11:38;;;;;;;;;;;9.70;99.90;;;;;;4999251;28;21116;-75
2021/12/28 09:14:05;;;;;;;;;;;9.80;99.90;;;;;;5039692;28;20060;-74
2021/12/28 09:16:32;;;;;;;;;;;9.80;99.90;;;;;;4999264;28;20066;-75
2021/12/28 09:18:59;;;;;;;;;;;9.90;99.90;;;;;;5025379;28;20077;-71
2021/12/28 09:21:26;;;;;;;;;;;10.00;99.90;;;;;;5040058;28;20059;-70
2021/12/28 09:23:53;;;;;;;;;;;10.00;99.90;;;;;;5039943;28;20149;-75
2021/12/28 09:26:20;;;;;;;;;;;10.10;99.90;;;;;;5039477;28;20051;-72
2021/12/28 09:28:49;;;;;;;;;;;10.20;99.90;;;;;;5004319;28;21083;-72
2021/12/28 09:31:16;;;;;;;;;;;10.30;99.90;;;;;;5030555;28;20067;-70
2021/12/28 09:33:43;;;;;;;;;;;10.40;99.90;;;;;;5038976;28;20059;-70
2021/12/28 09:36:14;;;;;;;;;;;10.50;99.90;;;;;;5043031;28;20059;-74
2021/12/28 09:38:42;;;;;;;;;;;10.50;99.90;;;;;;5041361;28;20077;-76
2021/12/28 09:41:09;;;;;;;;;;;10.50;99.90;;;;;;5010164;28;20075;-74
2021/12/28 09:43:37;;;;;;;;;;;10.60;99.90;;;;;;5026946;28;20075;-75
2021/12/28 09:46:05;;;;;;;;;;;10.60;99.90;;;;;;5026779;28;20077;-75
2021/12/28 09:48:32;;;;;;;;;;;10.70;99.90;;;;;;5026423;28;20090;-74
2021/12/28 09:51:00;;;;;;;;;;;10.70;99.90;;;;;;5012167;28;20067;-73
2021/12/28 09:53:27;;;;;;;;;;;10.80;99.90;;;;;;5010760;28;20153;-76
2021/12/28 09:55:55;;;;;;;;;;;10.70;99.90;;;;;;5027549;28;20075;-76
2021/12/28 09:58:22;;;;;;;;;;;10.70;99.90;;;;;;5011189;28;20098;-75
2021/12/28 10:00:49;;;;;;;;;;;10.60;99.90;;;;;;5010296;28;20169;-74
2021/12/28 10:03:18;;;;;;;;;;;10.50;99.90;;;;;;5010412;28;20060;-76
2021/12/28 10:05:45;;;;;;;;;;;10.50;99.90;;;;;;5027503;28;21115;-74
2021/12/28 10:08:13;;;;;;;;;;;10.60;99.90;;;;;;5020144;28;20085;-74
2021/12/28 10:10:41;;;;;;;;;;;10.60;99.90;;;;;;4993781;28;20060;-75
2021/12/28 10:13:10;;;;;;;;;;;10.70;99.90;;;;;;5010421;28;20348;-74
2021/12/28 10:15:38;;;;;;;;;;;10.90;99.90;;;;;;4995602;28;20077;-74
2021/12/28 10:18:09;;;;;;;;;;;10.90;99.90;;;;;;5021697;28;20092;-73
2021/12/28 10:20:39;;;;;;;;;;;10.90;99.90;;;;;;5001198;28;20077;-74
2021/12/28 10:23:10;;;;;;;;;;;11.00;99.90;;;;;;4995532;28;20078;-74
2021/12/28 10:25:38;;;;;;;;;;;11.10;99.90;;;;;;5009326;28;21005;-74
2021/12/28 10:28:06;;;;;;;;;;;11.20;99.90;;;;;;5042580;28;20073;-75
2021/12/28 10:30:35;;;;;;;;;;;11.20;99.90;;;;;;5042974;28;20059;-75
2021/12/28 10:33:03;;;;;;;;;;;11.40;99.90;;;;;;5009722;28;20059;-75
2021/12/28 10:35:31;;;;;;;;;;;11.60;99.90;;;;;;5010609;28;20060;-74
2021/12/28 10:38:02;;;;;;;;;;;11.90;99.90;;;;;;5042755;28;20052;-74
2021/12/28 10:40:30;;;;;;;;;;;12.30;99.90;;;;;;4989837;28;20069;-73
2021/12/28 10:43:01;;;;;;;;;;;12.30;99.90;;;;;;5007100;28;20093;-76
2021/12/28 10:45:29;;;;;;;;;;;12.10;99.90;;;;;;4988977;28;20060;-74
2021/12/28 10:47:56;;;;;;;;;;;11.90;99.90;;;;;;4990133;28;20075;-75
2021/12/28 10:50:29;;;;;;;;;;;11.80;99.90;;;;;;4997443;28;20060;-76
2021/12/28 10:53:05;;;;;;;;;;;11.70;99.90;;;;;;4993796;28;20090;-74
2021/12/28 10:55:33;;;;;;;;;;;11.60;99.90;;;;;;5000790;28;20068;-75
2021/12/28 10:58:02;;;;;;;;;;;11.50;99.90;;;;;;5001427;28;20076;-74
2021/12/28 11:00:30;;;;;;;;;;;11.50;99.90;;;;;;5019763;28;20069;-75
2021/12/28 11:03:12;;;;;;;;;;;11.40;99.90;;;;;;5024455;28;20059;-74
2021/12/28 11:05:39;;;;;;;;;;;11.50;99.90;;;;;;5009594;28;20094;-74
2021/12/28 11:08:08;;;;;;;;;;;11.40;99.90;;;;;;5003823;28;20068;-75
2021/12/28 11:10:37;;;;;;;;;;;11.40;99.90;;;;;;5015051;28;20068;-75
2021/12/28 11:13:04;;;;;;;;;;;11.50;99.90;;;;;;4998010;28;20086;-74
2021/12/28 11:15:37;;;;;;;;;;;11.50;99.90;;;;;;5010533;28;20235;-76
2021/12/28 11:18:16;;;;;;;;;;;11.40;99.90;;;;;;5007713;28;20161;-74
2021/12/28 11:20:44;;;;;;;;;;;11.30;99.90;;;;;;5014528;28;21154;-75
2021/12/28 11:23:13;;;;;;;;;;;11.00;99.90;;;;;;5015055;28;20051;-72
2021/12/28 11:25:40;;;;;;;;;;;10.90;99.90;;;;;;5016535;28;20089;-74
2021/12/28 11:28:16;;;;;;;;;;;10.80;99.90;;;;;;4999668;28;20124;-73
2021/12/28 11:30:59;;;;;;;;;;;10.70;99.90;;;;;;5007957;28;20119;-72
2021/12/28 11:33:26;;;;;;;;;;;10.60;99.90;;;;;;5011859;28;21050;-75
2021/12/28 11:35:53;;;;;;;;;;;10.50;99.90;;;;;;4996528;28;20067;-74
2021/12/28 11:38:22;;;;;;;;;;;10.50;99.90;;;;;;5011518;28;20068;-75
2021/12/28 11:40:49;;;;;;;;;;;10.60;99.90;;;;;;4999448;28;20068;-74
2021/12/28 11:43:17;;;;;;;;;;;10.50;99.90;;;;;;5002688;28;21209;-76
2021/12/28 11:45:44;;;;;;;;;;;10.60;99.90;;;;;;5010320;28;20165;-74
2021/12/28 11:48:11;;;;;;;;;;;10.60;99.90;;;;;;5015488;28;20077;-73
2021/12/28 11:50:39;;;;;;;;;;;10.60;99.90;;;;;;5007161;28;20077;-74
2021/12/28 11:53:06;;;;;;;;;;;10.70;99.90;;;;;;5005038;28;20062;-73
2021/12/28 11:55:35;;;;;;;;;;;10.70;99.90;;;;;;5023309;28;20084;-75
2021/12/28 11:58:03;;;;;;;;;;;10.60;99.90;;;;;;5001221;28;21095;-75
2021/12/28 12:00:36;;;;;;;;;;;10.60;99.90;;;;;;4999738;28;20098;-75
2021/12/28 12:03:03;;;;;;;;;;;10.60;99.90;;;;;;5029837;28;20162;-76
2021/12/28 12:05:31;;;;;;;;;;;10.70;99.90;;;;;;4994674;28;20060;-74
2021/12/28 12:08:05;;;;;;;;;;;10.70;99.90;;;;;;5027713;28;20075;-74
2021/12/28 12:10:35;;;;;;;;;;;10.70;99.90;;;;;;5042849;28;20106;-74
2021/12/28 12:13:16;;;;;;;;;;;10.70;99.90;;;;;;5009007;28;20141;-74
2021/12/28 12:15:48;;;;;;;;;;;10.50;99.90;;;;;;5037388;28;20162;-74
2021/12/28 12:18:20;;;;;;;;;;;10.40;99.90;;;;;;5042334;28;21138;-75
2021/12/28 12:20:48;;;;;;;;;;;10.30;99.90;;;;;;4989582;28;20068;-75
2021/12/28 12:23:18;;;;;;;;;;;10.30;99.90;;;;;;4991196;28;20068;-74
2021/12/28 12:26:00;;;;;;;;;;;10.30;99.90;;;;;;4989393;28;20087;-74
2021/12/28 12:28:32;;;;;;;;;;;10.30;99.90;;;;;;4987397;28;20066;-73
2021/12/28 12:31:01;;;;;;;;;;;10.30;99.90;;;;;;4991215;28;21073;-74
2021/12/28 12:33:43;;;;;;;;;;;10.30;99.90;;;;;;4988574;28;21122;-74
2021/12/28 12:36:18;;;;;;;;;;;10.30;99.90;;;;;;4984401;28;20092;-75
2021/12/28 12:38:47;;;;;;;;;;;10.30;99.90;;;;;;4988720;28;21062;-75
2021/12/28 12:41:17;;;;;;;;;;;10.40;99.90;;;;;;4992190;28;21069;-72
2021/12/28 12:43:48;;;;;;;;;;;10.40;99.90;;;;;;4989546;28;20069;-74
2021/12/28 12:46:22;;;;;;;;;;;10.40;99.90;;;;;;4988510;28;20076;-73
2021/12/28 12:49:06;;;;;;;;;;;10.40;99.90;;;;;;4987724;28;20329;-73
2021/12/28 12:51:48;;;;;;;;;;;10.40;99.90;;;;;;4988183;28;20065;-75
2021/12/28 12:54:19;;;;;;;;;;;10.40;99.90;;;;;;4984102;28;20061;-75
2021/12/28 12:56:59;;;;;;;;;;;10.50;99.90;;;;;;4986428;28;20080;-75
2021/12/28 12:59:28;;;;;;;;;;;10.60;99.90;;;;;;5001320;28;20080;-75
2021/12/28 13:02:02;;;;;;;;;;;10.60;99.90;;;;;;5026557;28;20067;-74
2021/12/28 13:04:56;;;;;;;;;;;10.60;99.90;;;;;;5040263;28;20058;-75
2021/12/28 13:07:25;;;;;;;;;;;10.70;99.90;;;;;;4958936;28;21053;-74
2021/12/28 13:09:57;;;;;;;;;;;11.00;99.90;;;;;;5030628;28;20139;-74
2021/12/28 13:12:24;;;;;;;;;;;12.20;99.90;;;;;;5037233;28;21168;-73
2021/12/28 13:14:51;;;;;;;;;;;15.00;99.90;;;;;;4990799;28;20067;-74
2021/12/28 13:17:22;;;;;;;;;;;16.40;99.90;;;;;;4994515;28;20158;-73
2021/12/28 13:19:56;;;;;;;;;;;16.60;99.90;;;;;;4996943;28;20060;-74
2021/12/28 13:24:59;;;;;;;;;;;14.10;99.90;;;;;;4955753;28;20289;-70
2021/12/28 13:27:29;;;;;;;;;;;12.90;99.90;;;;;;4948525;28;20556;-70
2021/12/28 13:29:57;;;;;;;;;;;;;;;;;;4946262;28;20069;-70
2021/12/28 13:32:29;;;;;;;;;;;11.50;99.90;;;;;;4948239;28;20214;-70
2021/12/28 13:35:00;;;;;;;;;;;11.20;99.90;;;;;;4944674;28;20077;-72
2021/12/28 13:37:32;;;;;;;;;;;11.10;99.90;;;;;;4928490;28;20069;-70
2021/12/28 13:40:00;;;;;;;;;;;11.00;99.90;;;;;;4928115;28;20343;-70
2021/12/28 13:42:27;;;;;;;;;;;10.90;99.90;;;;;;4928871;28;20061;-70
2021/12/28 13:44:54;;;;;;;;;;;10.90;99.90;;;;;;4928777;28;21093;-70
2021/12/28 13:47:21;;;;;;;;;;;;;;;;;;4927681;28;20105;-71
2021/12/28 13:50:01;;;;;;;;;;;11.20;99.90;;;;;;4927980;28;20069;-70
2021/12/28 13:52:29;;;;;;;;;;;;;;;;;;4919665;28;20087;-73
2021/12/28 13:54:56;;;;;;;;;;;16.00;99.90;;;;;;4918909;28;21190;-69
2021/12/28 13:57:23;;;;;;;;;;;16.40;99.90;;;;;;4919658;28;20767;-69
2021/12/28 13:59:54;;;;;;;;;;;16.40;99.90;;;;;;4919159;28;20313;-69
2021/12/28 14:02:22;;;;;;;;;;;15.90;99.90;;;;;;4918292;28;21154;-69
2021/12/28 14:04:49;;;;;;;;;;;15.60;99.90;;;;;;4941073;28;20085;-69
2021/12/28 14:07:17;;;;;;;;;;;15.30;99.90;;;;;;4941529;28;21303;-69
2021/12/28 14:09:45;;;;;;;;;;;15.00;99.90;;;;;;4910485;28;20079;-69
2021/12/28 14:12:12;;;;;;;;;;;14.30;99.90;;;;;;4927303;28;20061;-70
2021/12/28 14:14:46;;;;;;;;;;;12.70;99.90;;;;;;4926549;28;20070;-70
2021/12/28 14:17:14;;;;;;;;;;;11.60;99.90;;;;;;4926855;28;20152;-70
2021/12/28 14:19:42;;;;;;;;;;;11.10;99.90;;;;;;4926660;28;20280;-69
2021/12/28 14:22:09;;;;;;;;;;;10.80;99.90;;;;;;4925413;28;20144;-69
2021/12/28 14:24:39;;;;;;;;;;;10.50;99.90;;;;;;4924555;28;20125;-69
2021/12/28 14:27:06;;;;;;;;;;;10.40;99.90;;;;;;4908725;28;20076;-70
2021/12/28 14:29:34;;;;;;;;;;;10.30;99.90;;;;;;4923887;28;20071;-69
2021/12/28 14:32:02;;;;;;;;;;;10.20;99.90;;;;;;4924659;28;20228;-69
2021/12/28 14:34:32;;;;;;;;;;;10.00;99.90;;;;;;4919161;28;20092;-69
2021/12/28 14:37:03;;;;;;;;;;;9.90;99.90;;;;;;4923167;28;20330;-69